Time;durP1;ratioP1;P1;durP2;ratioP2;P2;SDS_P1;SDS_P2;PMS_P1;PMS_P2;Temp;Humidity;BMP_temperature;BMP_pressure;BME280_temperature;BME280_humidity;BME280_pressure;Samples;Min_cycle;Max_cycle;Signal;HPM_P1;HPM_P2
2022/05/12 00:02:28;;;;;;;4.80;3.23;;;;;;;;;;5070620;28;20444;-75
2022/05/12 00:04:55;;;;;;;3.53;3.00;;;;;;;;;;5078062;28;20471;-75
2022/05/12 00:07:22;;;;;;;3.37;3.07;;;;;;;;;;5064443;28;20972;-75
2022/05/12 00:09:49;;;;;;;5.90;3.30;;;;;;;;;;5050081;28;20445;-76
2022/05/12 00:12:16;;;;;;;4.63;3.70;;;;;;;;;;5049893;28;20572;-75
2022/05/12 00:14:43;;;;;;;3.63;3.43;;;;;;;;;;5051338;28;20484;-74
2022/05/12 00:17:10;;;;;;;4.57;3.37;;;;;;;;;;5051412;28;20484;-76
2022/05/12 00:19:39;;;;;;;4.33;3.63;;;;;;;;;;5049854;28;20448;-76
2022/05/12 00:22:06;;;;;;;3.73;3.43;;;;;;;;;;5049770;28;20854;-75
2022/05/12 00:24:33;;;;;;;3.40;3.10;;;;;;;;;;5049077;28;20494;-75
2022/05/12 00:27:00;;;;;;;4.03;3.60;;;;;;;;;;5049742;28;20473;-76
2022/05/12 00:29:27;;;;;;;3.47;3.17;;;;;;;;;;5049697;28;20445;-75
2022/05/12 00:31:54;;;;;;;4.70;3.97;;;;;;;;;;5049671;28;20503;-75
2022/05/12 00:34:22;;;;;;;3.90;3.30;;;;;;;;;;5049118;28;20466;-77
2022/05/12 00:36:51;;;;;;;3.50;3.30;;;;;;;;;;5049525;28;20460;-76
2022/05/12 00:39:18;;;;;;;3.70;3.40;;;;;;;;;;5057407;28;20856;-76
2022/05/12 00:41:45;;;;;;;3.80;3.40;;;;;;;;;;5058053;28;20936;-74
2022/05/12 00:44:13;;;;;;;3.03;2.83;;;;;;;;;;5057392;28;20956;-75
2022/05/12 00:46:41;;;;;;;3.60;3.30;;;;;;;;;;5049509;28;20524;-75
2022/05/12 00:49:11;;;;;;;3.63;3.43;;;;;;;;;;5049433;28;20500;-75
2022/05/12 00:51:39;;;;;;;3.77;3.50;;;;;;;;;;5049372;28;20449;-74
2022/05/12 00:54:12;;;;;;;3.67;3.37;;;;;;;;;;5049347;28;20457;-76
2022/05/12 00:56:40;;;;;;;3.43;3.13;;;;;;;;;;5049492;28;20471;-76
2022/05/12 00:59:10;;;;;;;4.23;3.83;;;;;;;;;;5049542;28;20501;-75
2022/05/12 01:01:38;;;;;;;4.33;4.03;;;;;;;;;;5049394;28;20999;-75
2022/05/12 01:04:06;;;;;;;5.33;3.90;;;;;;;;;;5049120;28;20856;-76
2022/05/12 01:06:33;;;;;;;4.30;4.00;;;;;;;;;;5049250;28;20511;-75
2022/05/12 01:09:00;;;;;;;3.93;3.63;;;;;;;;;;5049641;28;20442;-76
2022/05/12 01:11:29;;;;;;;3.90;3.53;;;;;;;;;;5049405;28;20514;-75
2022/05/12 01:13:59;;;;;;;5.27;3.43;;;;;;;;;;5048972;28;20453;-77
2022/05/12 01:16:37;;;;;;;4.20;3.90;;;;;;;;;;5049276;28;20445;-74
2022/05/12 01:19:05;;;;;;;4.33;3.70;;;;;;;;;;5049912;28;20481;-77
2022/05/12 01:21:32;;;;;;;5.43;3.90;;;;;;;;;;5053037;28;20999;-76
2022/05/12 01:24:01;;;;;;;3.40;3.20;;;;;;;;;;5052808;28;20527;-76
2022/05/12 01:26:28;;;;;;;4.00;3.60;;;;;;;;;;5053099;28;20881;-74
2022/05/12 01:28:55;;;;;;;3.80;3.37;;;;;;;;;;5053081;28;20524;-76
2022/05/12 01:31:22;;;;;;;4.30;3.90;;;;;;;;;;5053494;28;20578;-75
2022/05/12 01:33:51;;;;;;;3.93;3.53;;;;;;;;;;5052645;28;20981;-77
2022/05/12 01:36:18;;;;;;;4.00;3.60;;;;;;;;;;5053103;28;20480;-75
2022/05/12 01:38:45;;;;;;;4.23;3.93;;;;;;;;;;5053036;28;20489;-75
2022/05/12 01:41:13;;;;;;;5.40;3.90;;;;;;;;;;5053412;28;20487;-75
2022/05/12 01:43:40;;;;;;;5.37;3.87;;;;;;;;;;5052741;28;20563;-76
2022/05/12 01:46:08;;;;;;;3.83;3.53;;;;;;;;;;5052672;28;20818;-75
2022/05/12 01:48:35;;;;;;;4.50;4.23;;;;;;;;;;5052782;28;20868;-75
2022/05/12 01:51:02;;;;;;;5.17;3.97;;;;;;;;;;5052843;28;20941;-76
2022/05/12 01:53:30;;;;;;;4.10;3.80;;;;;;;;;;5052536;28;20449;-76
2022/05/12 01:55:58;;;;;;;4.30;3.83;;;;;;;;;;5052798;28;20445;-76
2022/05/12 01:58:27;;;;;;;4.13;3.87;;;;;;;;;;5053146;28;20885;-76
2022/05/12 02:00:54;;;;;;;4.30;4.00;;;;;;;;;;5055007;28;20483;-75
2022/05/12 02:03:21;;;;;;;4.30;4.00;;;;;;;;;;5055102;28;20446;-74
2022/05/12 02:05:48;;;;;;;4.73;3.50;;;;;;;;;;5055487;28;20445;-76
2022/05/12 02:08:16;;;;;;;5.10;3.97;;;;;;;;;;5054711;28;20540;-74
2022/05/12 02:10:45;;;;;;;8.20;7.50;;;;;;;;;;5054256;28;20439;-74
2022/05/12 02:13:13;;;;;;;5.40;5.00;;;;;;;;;;5054806;28;20449;-75
2022/05/12 02:15:42;;;;;;;5.50;5.00;;;;;;;;;;5056696;28;20622;-74
2022/05/12 02:18:09;;;;;;;5.20;4.70;;;;;;;;;;5053351;28;20489;-76
2022/05/12 02:20:36;;;;;;;8.40;4.57;;;;;;;;;;5052288;28;20840;-77
2022/05/12 02:23:04;;;;;;;6.87;4.40;;;;;;;;;;5052392;28;20445;-75
2022/05/12 02:25:31;;;;;;;4.70;4.33;;;;;;;;;;5052138;28;20445;-76
2022/05/12 02:27:58;;;;;;;5.60;4.63;;;;;;;;;;5052358;28;20846;-75
2022/05/12 02:30:27;;;;;;;4.23;3.93;;;;;;;;;;5052436;28;20441;-74
2022/05/12 02:32:55;;;;;;;4.43;4.13;;;;;;;;;;5051921;28;20472;-75
2022/05/12 02:35:23;;;;;;;4.10;3.80;;;;;;;;;;5052237;28;20491;-76
2022/05/12 02:37:50;;;;;;;6.77;4.43;;;;;;;;;;5051931;28;20466;-75
2022/05/12 02:40:19;;;;;;;4.97;4.57;;;;;;;;;;5051983;28;20449;-74
2022/05/12 02:42:46;;;;;;;5.70;4.57;;;;;;;;;;5051767;28;20504;-75
2022/05/12 02:45:13;;;;;;;3.90;3.60;;;;;;;;;;5051925;28;20441;-75
2022/05/12 02:47:40;;;;;;;4.17;3.83;;;;;;;;;;5051633;28;20604;-75
2022/05/12 02:50:10;;;;;;;4.00;3.70;;;;;;;;;;5051733;28;20984;-74
2022/05/12 02:52:37;;;;;;;3.87;3.47;;;;;;;;;;5051474;28;20511;-74
2022/05/12 02:55:04;;;;;;;3.07;2.77;;;;;;;;;;5051792;28;20866;-76
2022/05/12 02:57:32;;;;;;;3.77;3.07;;;;;;;;;;5051831;28;20461;-75
2022/05/12 02:59:59;;;;;;;2.97;2.63;;;;;;;;;;5051641;28;20579;-76
2022/05/12 03:02:26;;;;;;;3.90;3.30;;;;;;;;;;5051517;28;20441;-76
2022/05/12 03:04:53;;;;;;;3.10;2.90;;;;;;;;;;5052834;28;20445;-76
2022/05/12 03:07:21;;;;;;;3.17;2.97;;;;;;;;;;5055353;28;20519;-76
2022/05/12 03:09:48;;;;;;;3.60;2.70;;;;;;;;;;5054065;28;20457;-76
2022/05/12 03:12:15;;;;;;;4.50;3.27;;;;;;;;;;5055976;28;20460;-76
2022/05/12 03:14:42;;;;;;;3.03;2.83;;;;;;;;;;5056158;28;20453;-76
2022/05/12 03:17:09;;;;;;;3.00;2.80;;;;;;;;;;5056318;28;20473;-75
2022/05/12 03:19:36;;;;;;;4.03;2.83;;;;;;;;;;5055217;28;20491;-76
2022/05/12 03:22:04;;;;;;;3.07;2.87;;;;;;;;;;5051240;28;20873;-75
2022/05/12 03:24:33;;;;;;;3.07;2.87;;;;;;;;;;5050973;28;20496;-75
2022/05/12 03:27:00;;;;;;;3.37;2.43;;;;;;;;;;5051232;28;20528;-77
2022/05/12 03:29:27;;;;;;;3.33;2.87;;;;;;;;;;5051309;28;20444;-76
2022/05/12 03:31:54;;;;;;;3.97;2.70;;;;;;;;;;5051534;28;20503;-76
2022/05/12 03:34:21;;;;;;;5.87;2.80;;;;;;;;;;5053521;28;20454;-73
2022/05/12 03:36:48;;;;;;;3.13;2.93;;;;;;;;;;5055599;28;20458;-75
2022/05/12 03:39:15;;;;;;;3.07;2.87;;;;;;;;;;5052751;28;20489;-76
2022/05/12 03:41:45;;;;;;;2.90;2.80;;;;;;;;;;5051180;28;20552;-75
2022/05/12 03:46:57;;;;;;;3.10;2.70;;;;;;;;;;5050715;28;20445;-76
2022/05/12 03:49:24;;;;;;;3.13;2.93;;;;;;;;;;5050813;28;20442;-75
2022/05/12 03:51:51;;;;;;;3.77;2.83;;;;;;;;;;5050933;28;20473;-75
2022/05/12 03:54:19;;;;;;;2.87;2.67;;;;;;;;;;5050534;28;21153;-74
2022/05/12 03:56:48;;;;;;;3.00;2.80;;;;;;;;;;5050798;28;20449;-74
2022/05/12 03:59:15;;;;;;;2.77;2.67;;;;;;;;;;5050121;28;20504;-76
2022/05/12 04:01:42;;;;;;;2.70;2.57;;;;;;;;;;5050912;28;20448;-76
2022/05/12 04:04:09;;;;;;;2.60;2.40;;;;;;;;;;5050265;28;20809;-74
2022/05/12 04:06:36;;;;;;;2.67;2.47;;;;;;;;;;5050314;28;20930;-76
2022/05/12 04:09:04;;;;;;;3.07;2.97;;;;;;;;;;5049347;28;20487;-74
2022/05/12 04:11:31;;;;;;;3.17;2.57;;;;;;;;;;5060929;28;20441;-75
2022/05/12 04:13:59;;;;;;;3.20;2.90;;;;;;;;;;5054737;28;20532;-76
2022/05/12 04:16:26;;;;;;;3.07;2.50;;;;;;;;;;5062095;28;20487;-74
2022/05/12 04:18:53;;;;;;;3.70;2.63;;;;;;;;;;5070047;28;20468;-75
2022/05/12 04:21:21;;;;;;;3.30;2.50;;;;;;;;;;5070145;28;20444;-74
2022/05/12 04:23:48;;;;;;;2.63;2.43;;;;;;;;;;5055186;28;20454;-74
2022/05/12 04:26:15;;;;;;;2.63;2.43;;;;;;;;;;5055060;28;20823;-75
2022/05/12 04:28:42;;;;;;;2.80;2.60;;;;;;;;;;5048766;28;20467;-76
2022/05/12 04:31:10;;;;;;;3.27;3.00;;;;;;;;;;5069043;28;20504;-74
2022/05/12 04:36:22;;;;;;;3.23;2.70;;;;;;;;;;5075662;28;20934;-74
2022/05/12 04:38:49;;;;;;;2.73;2.53;;;;;;;;;;5069593;28;20480;-75
2022/05/12 04:41:17;;;;;;;7.23;6.63;;;;;;;;;;5069992;28;20448;-75
2022/05/12 04:43:44;;;;;;;5.63;5.13;;;;;;;;;;5069532;28;20523;-76
2022/05/12 04:46:12;;;;;;;3.17;2.97;;;;;;;;;;5069564;28;20448;-75
2022/05/12 04:48:39;;;;;;;2.93;2.57;;;;;;;;;;5069511;28;20521;-75
2022/05/12 04:51:06;;;;;;;2.50;2.30;;;;;;;;;;5070084;28;20448;-75
2022/05/12 04:53:33;;;;;;;3.27;2.60;;;;;;;;;;5068241;28;20440;-75
2022/05/12 04:56:00;;;;;;;2.77;2.57;;;;;;;;;;5069592;28;20578;-74
2022/05/12 04:58:27;;;;;;;3.20;2.97;;;;;;;;;;5069301;28;20461;-76
2022/05/12 05:00:55;;;;;;;3.20;2.90;;;;;;;;;;5069457;28;20498;-76
2022/05/12 05:03:23;;;;;;;3.63;2.67;;;;;;;;;;5069244;28;20862;-76
2022/05/12 05:05:51;;;;;;;2.30;2.20;;;;;;;;;;5069417;28;20444;-75
2022/05/12 05:08:19;;;;;;;2.60;2.40;;;;;;;;;;5051471;28;20477;-75
2022/05/12 05:10:46;;;;;;;3.50;2.90;;;;;;;;;;5049433;28;20495;-75
2022/05/12 05:13:14;;;;;;;2.97;2.67;;;;;;;;;;5048866;28;20441;-76
2022/05/12 05:15:41;;;;;;;2.90;2.70;;;;;;;;;;5049218;28;20448;-74
2022/05/12 05:18:10;;;;;;;3.03;2.83;;;;;;;;;;5049061;28;20485;-75
2022/05/12 05:20:39;;;;;;;3.60;2.63;;;;;;;;;;5049003;28;20481;-76
2022/05/12 05:23:07;;;;;;;3.00;2.80;;;;;;;;;;5049063;28;20556;-75
2022/05/12 05:25:34;;;;;;;3.23;2.60;;;;;;;;;;5049357;28;20456;-76
2022/05/12 05:28:01;;;;;;;4.10;2.57;;;;;;;;;;5049256;28;20562;-75
2022/05/12 05:30:28;;;;;;;2.53;2.33;;;;;;;;;;5049350;28;20446;-75
2022/05/12 05:32:55;;;;;;;4.13;2.70;;;;;;;;;;5048730;28;20449;-77
2022/05/12 05:35:23;;;;;;;2.53;2.43;;;;;;;;;;5049397;28;20495;-75
2022/05/12 05:37:52;;;;;;;2.47;2.27;;;;;;;;;;5049175;28;20492;-75
2022/05/12 05:40:21;;;;;;;2.80;2.60;;;;;;;;;;5049341;28;20485;-74
2022/05/12 05:42:48;;;;;;;3.03;2.83;;;;;;;;;;5048951;28;20437;-74
2022/05/12 05:45:17;;;;;;;3.30;2.70;;;;;;;;;;5049191;28;20499;-75
2022/05/12 05:47:45;;;;;;;3.90;3.07;;;;;;;;;;5048531;28;20477;-75
2022/05/12 05:50:14;;;;;;;3.70;2.90;;;;;;;;;;5048756;28;20876;-74
2022/05/12 05:55:27;;;;;;;4.47;2.60;;;;;;;;;;5048775;28;20437;-75
2022/05/12 05:57:54;;;;;;;3.33;2.40;;;;;;;;;;5048659;28;20519;-73
2022/05/12 06:00:21;;;;;;;2.80;2.33;;;;;;;;;;5048950;28;20508;-75
2022/05/12 06:02:49;;;;;;;3.10;2.90;;;;;;;;;;5049072;28;20871;-74
2022/05/12 06:05:17;;;;;;;4.03;2.60;;;;;;;;;;5050159;28;20452;-75
2022/05/12 06:07:44;;;;;;;3.37;2.67;;;;;;;;;;5052323;28;20473;-74
2022/05/12 06:10:12;;;;;;;2.63;2.40;;;;;;;;;;5052123;28;20442;-76
2022/05/12 06:12:41;;;;;;;3.80;2.83;;;;;;;;;;5051917;28;20448;-74
2022/05/12 06:15:09;;;;;;;3.70;2.70;;;;;;;;;;5052352;28;20532;-76
2022/05/12 06:17:36;;;;;;;2.83;2.57;;;;;;;;;;5052937;28;20470;-76
2022/05/12 06:20:04;;;;;;;2.87;2.60;;;;;;;;;;5052344;28;20477;-74
2022/05/12 06:22:31;;;;;;;3.10;2.70;;;;;;;;;;5052055;28;20449;-75
2022/05/12 06:24:58;;;;;;;3.53;2.77;;;;;;;;;;5051627;28;20514;-75
2022/05/12 06:27:25;;;;;;;2.97;2.60;;;;;;;;;;5052832;28;20898;-75
2022/05/12 06:29:55;;;;;;;2.63;2.53;;;;;;;;;;5053230;28;20991;-75
2022/05/12 06:32:22;;;;;;;3.63;3.10;;;;;;;;;;5052829;28;20452;-75
2022/05/12 06:34:49;;;;;;;2.47;2.27;;;;;;;;;;5052651;28;20464;-74
2022/05/12 06:37:16;;;;;;;4.37;2.17;;;;;;;;;;5053508;28;20557;-76
2022/05/12 06:39:43;;;;;;;2.50;2.40;;;;;;;;;;5053388;28;20540;-75
2022/05/12 06:42:10;;;;;;;2.23;2.03;;;;;;;;;;5052439;28;20457;-75
2022/05/12 06:44:37;;;;;;;2.43;2.20;;;;;;;;;;5052283;28;20450;-75
2022/05/12 06:47:09;;;;;;;2.93;2.63;;;;;;;;;;5052158;28;20469;-75
2022/05/12 06:49:36;;;;;;;2.60;2.37;;;;;;;;;;5052812;28;20452;-75
2022/05/12 06:52:05;;;;;;;2.67;2.17;;;;;;;;;;5052021;28;20452;-76
2022/05/12 06:54:32;;;;;;;5.60;2.77;;;;;;;;;;5051494;28;20457;-75
2022/05/12 06:56:59;;;;;;;3.50;2.37;;;;;;;;;;5051823;28;20477;-74
2022/05/12 06:59:26;;;;;;;4.13;2.30;;;;;;;;;;5051740;28;20477;-77
2022/05/12 07:01:53;;;;;;;6.67;2.93;;;;;;;;;;5051861;28;20449;-73
2022/05/12 07:04:24;;;;;;;4.67;2.40;;;;;;;;;;5051474;28;20504;-76
2022/05/12 07:06:51;;;;;;;4.37;2.40;;;;;;;;;;5049677;28;20472;-76
2022/05/12 07:09:19;;;;;;;2.70;2.20;;;;;;;;;;5059739;28;20441;-76
2022/05/12 07:11:47;;;;;;;2.50;2.30;;;;;;;;;;5051801;28;20479;-76
2022/05/12 07:14:17;;;;;;;6.30;2.33;;;;;;;;;;5051424;28;20456;-75
2022/05/12 07:16:44;;;;;;;5.20;2.17;;;;;;;;;;5050449;28;20449;-75
2022/05/12 07:19:15;;;;;;;2.47;2.27;;;;;;;;;;5051107;28;20449;-77
2022/05/12 07:27:12;;;;;;;5.80;1.73;;;;;;;;;;5051215;28;20536;-75
2022/05/12 07:29:40;;;;;;;2.83;2.30;;;;;;;;;;5050988;28;20442;-75
2022/05/12 07:32:08;;;;;;;2.80;2.60;;;;;;;;;;5051381;28;20445;-75
2022/05/12 07:34:35;;;;;;;2.60;2.20;;;;;;;;;;5050502;28;20509;-75
2022/05/12 07:37:04;;;;;;;2.40;2.20;;;;;;;;;;5050824;28;20515;-75
2022/05/12 07:39:33;;;;;;;2.60;2.40;;;;;;;;;;5050708;28;20630;-75
2022/05/12 07:42:01;;;;;;;2.27;2.07;;;;;;;;;;5050230;28;20449;-75
2022/05/12 07:44:32;;;;;;;2.33;2.13;;;;;;;;;;5053673;28;20531;-75
2022/05/12 07:47:00;;;;;;;2.60;2.50;;;;;;;;;;5053737;28;20472;-77
2022/05/12 07:49:31;;;;;;;2.60;2.40;;;;;;;;;;5058509;28;20544;-76
2022/05/12 07:51:58;;;;;;;5.07;2.37;;;;;;;;;;5030663;28;20863;-76
2022/05/12 07:54:26;;;;;;;2.70;2.47;;;;;;;;;;5030182;28;20508;-76
2022/05/12 07:56:53;;;;;;;3.87;1.97;;;;;;;;;;5030464;28;20458;-76
2022/05/12 07:59:21;;;;;;;3.10;2.30;;;;;;;;;;5030530;28;20450;-76
2022/05/12 08:01:48;;;;;;;3.60;2.20;;;;;;;;;;5030520;28;20437;-76
2022/05/12 08:04:15;;;;;;;3.33;3.00;;;;;;;;;;5030157;28;20538;-74
2022/05/12 08:06:43;;;;;;;2.60;2.40;;;;;;;;;;5038380;28;20438;-74
2022/05/12 08:09:10;;;;;;;4.00;2.50;;;;;;;;;;5054949;28;20429;-75
2022/05/12 08:11:39;;;;;;;2.20;1.77;;;;;;;;;;5055359;28;20841;-75
2022/05/12 08:14:06;;;;;;;2.33;2.10;;;;;;;;;;5055660;28;20475;-74
2022/05/12 08:16:33;;;;;;;3.53;2.30;;;;;;;;;;5055319;28;20445;-74
2022/05/12 08:19:00;;;;;;;5.73;2.80;;;;;;;;;;5051924;28;20472;-75
2022/05/12 08:21:27;;;;;;;11.10;2.67;;;;;;;;;;5050257;28;20512;-75
2022/05/12 08:23:55;;;;;;;3.33;2.60;;;;;;;;;;5045231;28;20452;-77
2022/05/12 08:26:22;;;;;;;2.50;2.30;;;;;;;;;;5058909;28;20932;-78
2022/05/12 08:28:51;;;;;;;3.67;2.63;;;;;;;;;;5061357;28;20924;-75
2022/05/12 08:31:20;;;;;;;3.47;2.50;;;;;;;;;;5070057;28;20456;-75
2022/05/12 08:33:47;;;;;;;3.53;2.93;;;;;;;;;;5069462;28;20452;-76
2022/05/12 08:36:14;;;;;;;2.27;2.17;;;;;;;;;;5069926;28;20437;-74
2022/05/12 08:38:44;;;;;;;2.83;2.63;;;;;;;;;;5070290;28;20464;-76
2022/05/12 08:41:15;;;;;;;3.53;2.37;;;;;;;;;;5069901;28;20476;-75
2022/05/12 08:43:53;;;;;;;2.90;2.70;;;;;;;;;;5069504;28;20920;-76
2022/05/12 08:46:23;;;;;;;3.33;2.20;;;;;;;;;;5070074;28;20536;-76
2022/05/12 08:48:51;;;;;;;3.63;2.53;;;;;;;;;;5069264;28;20480;-75
2022/05/12 08:51:21;;;;;;;2.97;2.67;;;;;;;;;;5069909;28;20510;-74
2022/05/12 08:53:49;;;;;;;3.37;3.07;;;;;;;;;;5069484;28;20452;-74
2022/05/12 08:56:19;;;;;;;3.60;3.30;;;;;;;;;;5069204;28;20471;-74
2022/05/12 08:58:46;;;;;;;3.20;3.00;;;;;;;;;;5069734;28;20473;-75
2022/05/12 09:01:19;;;;;;;6.33;3.40;;;;;;;;;;5069641;28;20480;-76
2022/05/12 09:03:52;;;;;;;3.10;2.90;;;;;;;;;;5060743;28;20447;-75
2022/05/12 09:06:20;;;;;;;2.97;2.77;;;;;;;;;;5054406;28;20932;-76
2022/05/12 09:08:53;;;;;;;2.73;2.50;;;;;;;;;;5057577;28;20832;-75
2022/05/12 09:11:21;;;;;;;3.60;3.30;;;;;;;;;;5049665;28;20873;-76
2022/05/12 09:13:49;;;;;;;2.80;2.60;;;;;;;;;;5048942;28;20441;-76
2022/05/12 09:16:18;;;;;;;2.93;2.83;;;;;;;;;;5049459;28;20797;-76
2022/05/12 09:18:45;;;;;;;4.17;3.00;;;;;;;;;;5049590;28;20453;-75
2022/05/12 09:21:15;;;;;;;3.27;2.97;;;;;;;;;;5049350;28;20489;-74
2022/05/12 09:23:42;;;;;;;3.50;3.20;;;;;;;;;;5049662;28;20868;-75
2022/05/12 09:26:28;;;;;;;5.23;3.27;;;;;;;;;;5052592;28;20445;-76
2022/05/12 09:29:08;;;;;;;3.60;3.30;;;;;;;;;;5049899;28;20448;-76
2022/05/12 09:31:36;;;;;;;3.70;3.33;;;;;;;;;;5049299;28;20461;-77
2022/05/12 09:34:15;;;;;;;3.30;3.03;;;;;;;;;;5048988;28;20457;-75
2022/05/12 09:36:44;;;;;;;5.67;4.37;;;;;;;;;;5048808;28;20488;-77
2022/05/12 09:39:12;;;;;;;6.30;3.63;;;;;;;;;;5049427;28;20453;-76
2022/05/12 09:41:41;;;;;;;3.73;3.23;;;;;;;;;;5052150;28;20988;-76
2022/05/12 09:44:16;;;;;;;4.63;3.80;;;;;;;;;;5053325;28;20452;-77
2022/05/12 09:46:43;;;;;;;3.40;3.13;;;;;;;;;;5053496;28;20437;-75
2022/05/12 09:49:17;;;;;;;3.40;3.20;;;;;;;;;;5053138;28;20453;-76
2022/05/12 09:51:46;;;;;;;3.63;3.33;;;;;;;;;;5054525;28;20487;-78
2022/05/12 09:54:18;;;;;;;4.10;3.70;;;;;;;;;;5054212;28;20445;-77
2022/05/12 09:56:53;;;;;;;3.60;3.30;;;;;;;;;;5053985;28;20936;-77
2022/05/12 09:59:22;;;;;;;3.63;3.37;;;;;;;;;;5053857;28;20831;-77
2022/05/12 10:01:51;;;;;;;3.00;2.80;;;;;;;;;;5053786;28;20988;-76
2022/05/12 10:09:55;;;;;;;4.57;3.60;;;;;;;;;;5053836;28;20425;-77
2022/05/12 10:12:23;;;;;;;3.83;3.50;;;;;;;;;;5052484;28;20524;-78
2022/05/12 10:14:52;;;;;;;5.00;3.60;;;;;;;;;;5052692;28;20453;-77
2022/05/12 10:17:21;;;;;;;6.50;3.47;;;;;;;;;;5052586;28;20555;-77
2022/05/12 10:19:49;;;;;;;4.00;3.60;;;;;;;;;;5052831;28;20445;-75
2022/05/12 10:22:18;;;;;;;3.40;3.20;;;;;;;;;;5052638;28;20478;-76
2022/05/12 10:24:51;;;;;;;3.43;3.13;;;;;;;;;;5051920;28;20871;-77
2022/05/12 10:27:21;;;;;;;4.30;3.63;;;;;;;;;;5052653;28;20457;-75
2022/05/12 10:30:00;;;;;;;3.10;2.90;;;;;;;;;;5052628;28;20507;-77
2022/05/12 10:32:35;;;;;;;3.93;3.20;;;;;;;;;;5052660;28;20457;-77
2022/05/12 10:35:08;;;;;;;3.60;3.30;;;;;;;;;;5052593;28;20951;-76
2022/05/12 10:37:42;;;;;;;4.57;3.50;;;;;;;;;;5052237;28;21009;-75
2022/05/12 10:40:17;;;;;;;5.13;3.40;;;;;;;;;;5052725;28;20441;-76
2022/05/12 10:42:49;;;;;;;3.23;2.97;;;;;;;;;;5052012;28;20499;-76
2022/05/12 10:45:20;;;;;;;3.63;3.37;;;;;;;;;;5052171;28;20524;-77
2022/05/12 10:47:58;;;;;;;6.00;3.70;;;;;;;;;;5051627;28;20477;-76
2022/05/12 10:50:29;;;;;;;3.77;3.20;;;;;;;;;;5052300;28;20445;-76
2022/05/12 10:53:03;;;;;;;6.20;3.83;;;;;;;;;;5050291;28;20818;-77
2022/05/12 10:55:36;;;;;;;4.03;3.50;;;;;;;;;;5051787;28;20536;-75
2022/05/12 10:58:19;;;;;;;3.73;3.33;;;;;;;;;;5051512;28;20454;-78
2022/05/12 11:00:53;;;;;;;4.13;3.70;;;;;;;;;;5051824;28;20858;-76
2022/05/12 11:03:22;;;;;;;4.10;3.77;;;;;;;;;;5051366;28;20973;-75
2022/05/12 11:05:51;;;;;;;4.40;3.60;;;;;;;;;;5052010;28;20925;-78
2022/05/12 11:08:21;;;;;;;3.87;3.60;;;;;;;;;;5051446;28;20497;-76
2022/05/12 11:10:50;;;;;;;5.10;3.90;;;;;;;;;;5051678;28;20503;-76
2022/05/12 11:13:21;;;;;;;3.77;3.47;;;;;;;;;;5051453;28;20491;-75
2022/05/12 11:15:51;;;;;;;4.37;3.97;;;;;;;;;;5051635;28;20449;-76
2022/05/12 11:18:22;;;;;;;3.80;3.50;;;;;;;;;;5051801;28;20933;-76
2022/05/12 11:20:54;;;;;;;4.80;3.80;;;;;;;;;;5051505;28;20501;-76
2022/05/12 11:23:28;;;;;;;4.03;3.73;;;;;;;;;;5050400;28;20989;-75
2022/05/12 11:25:59;;;;;;;4.30;3.90;;;;;;;;;;5054457;28;20434;-75
2022/05/12 11:31:19;;;;;;;4.43;4.03;;;;;;;;;;5070459;28;20427;-74
2022/05/12 11:37:22;;;;;;;4.70;3.77;;;;;;;;;;4969256;28;20453;-74
2022/05/12 11:46:14;;;;;;;3.93;3.70;;;;;;;;;;5003064;28;20431;-75
2022/05/12 11:48:43;;;;;;;4.07;3.67;;;;;;;;;;5059071;28;20472;-75
2022/05/12 11:51:20;;;;;;;3.67;3.30;;;;;;;;;;5064872;28;20516;-75
2022/05/12 11:53:53;;;;;;;4.37;3.97;;;;;;;;;;5062079;28;20857;-76
2022/05/12 11:56:33;;;;;;;4.57;4.27;;;;;;;;;;5055161;28;20481;-75
2022/05/12 11:59:16;;;;;;;5.57;4.37;;;;;;;;;;5050709;28;20445;-76
2022/05/12 12:01:54;;;;;;;4.23;3.93;;;;;;;;;;5050622;28;20484;-76
2022/05/12 12:04:36;;;;;;;3.47;3.23;;;;;;;;;;5058182;28;20437;-75
2022/05/12 12:07:03;;;;;;;4.30;3.90;;;;;;;;;;5036987;28;20453;-75
2022/05/12 12:09:33;;;;;;;5.70;3.13;;;;;;;;;;5050597;28;20446;-75
2022/05/12 12:12:01;;;;;;;6.87;3.40;;;;;;;;;;5050691;28;20440;-75
2022/05/12 12:14:46;;;;;;;4.43;3.60;;;;;;;;;;5049993;28;20437;-75
2022/05/12 12:17:30;;;;;;;5.30;3.57;;;;;;;;;;5050053;28;20473;-75
2022/05/12 12:19:58;;;;;;;3.53;3.27;;;;;;;;;;5050531;28;20441;-75
2022/05/12 12:22:37;;;;;;;5.00;3.10;;;;;;;;;;5050302;28;20481;-75
2022/05/12 12:25:13;;;;;;;3.57;3.00;;;;;;;;;;5050280;28;20482;-75
2022/05/12 12:28:02;;;;;;;4.50;3.53;;;;;;;;;;5049794;28;20588;-75
2022/05/12 12:30:50;;;;;;;3.17;2.87;;;;;;;;;;5050325;28;20506;-75
2022/05/12 12:33:20;;;;;;;3.73;3.07;;;;;;;;;;5049687;28;20454;-73
2022/05/12 12:35:53;;;;;;;3.67;3.37;;;;;;;;;;5050156;28;20476;-73
2022/05/12 12:38:35;;;;;;;4.07;3.67;;;;;;;;;;5050314;28;20461;-74
2022/05/12 12:41:03;;;;;;;3.97;3.37;;;;;;;;;;5049344;28;20446;-74
2022/05/12 12:43:33;;;;;;;3.40;3.20;;;;;;;;;;5045927;28;20466;-75
2022/05/12 12:46:10;;;;;;;5.07;3.87;;;;;;;;;;5054501;28;20602;-74
2022/05/12 12:48:40;;;;;;;3.73;3.43;;;;;;;;;;5058746;28;20908;-75
2022/05/12 12:51:07;;;;;;;3.40;3.20;;;;;;;;;;5061538;28;20436;-75
2022/05/12 12:56:35;;;;;;;3.37;3.17;;;;;;;;;;5069872;28;20408;-75
2022/05/12 12:59:04;;;;;;;4.00;3.60;;;;;;;;;;5069842;28;20461;-75
2022/05/12 13:01:39;;;;;;;4.93;3.23;;;;;;;;;;5062528;28;20568;-74
2022/05/12 13:04:08;;;;;;;9.83;3.70;;;;;;;;;;5053577;28;20441;-74
2022/05/12 13:06:37;;;;;;;3.23;2.90;;;;;;;;;;5055101;28;20441;-75
2022/05/12 13:09:06;;;;;;;3.83;3.33;;;;;;;;;;5055977;28;20477;-74
2022/05/12 13:11:36;;;;;;;3.40;3.10;;;;;;;;;;5049446;28;20445;-75
2022/05/12 13:14:04;;;;;;;3.60;3.30;;;;;;;;;;5049753;28;20476;-74
2022/05/12 13:16:35;;;;;;;3.63;3.10;;;;;;;;;;5052486;28;20794;-74
2022/05/12 13:19:03;;;;;;;3.80;3.37;;;;;;;;;;5053967;28;20429;-73
2022/05/12 13:21:34;;;;;;;3.20;2.97;;;;;;;;;;5053390;28;20876;-74
2022/05/12 13:24:02;;;;;;;4.07;3.63;;;;;;;;;;5053150;28;20449;-74
2022/05/12 13:26:31;;;;;;;3.37;3.13;;;;;;;;;;5053563;28;20456;-74
2022/05/12 13:28:58;;;;;;;3.33;3.03;;;;;;;;;;5053781;28;20480;-74
2022/05/12 13:31:31;;;;;;;4.17;3.20;;;;;;;;;;5054211;28;20529;-74
2022/05/12 13:34:03;;;;;;;3.17;2.90;;;;;;;;;;5053651;28;20461;-74
2022/05/12 13:36:33;;;;;;;5.20;3.10;;;;;;;;;;5053747;28;20445;-74
2022/05/12 13:39:00;;;;;;;3.53;3.20;;;;;;;;;;5054120;28;20922;-75
2022/05/12 13:41:30;;;;;;;3.90;3.10;;;;;;;;;;5054006;28;20473;-75
2022/05/12 13:44:03;;;;;;;3.27;2.97;;;;;;;;;;5053486;28;20446;-76
2022/05/12 13:46:31;;;;;;;8.00;3.60;;;;;;;;;;5053511;28;20441;-74
2022/05/12 13:48:59;;;;;;;3.80;3.47;;;;;;;;;;5052915;28;21174;-75
2022/05/12 13:51:44;;;;;;;7.57;3.30;;;;;;;;;;5054194;28;20511;-74
2022/05/12 13:54:21;;;;;;;6.20;3.57;;;;;;;;;;5053221;28;20445;-75
2022/05/12 13:56:49;;;;;;;4.87;3.40;;;;;;;;;;5053618;28;20432;-75
2022/05/12 13:59:21;;;;;;;4.73;3.30;;;;;;;;;;5053274;28;20540;-74
2022/05/12 14:01:50;;;;;;;3.67;3.17;;;;;;;;;;5053560;28;20480;-75
2022/05/12 14:04:19;;;;;;;7.90;3.60;;;;;;;;;;5053790;28;20453;-75
2022/05/12 14:06:52;;;;;;;3.30;2.90;;;;;;;;;;5053610;28;20442;-75
2022/05/12 14:09:21;;;;;;;5.10;3.63;;;;;;;;;;5053881;28;20441;-74
2022/05/12 14:11:58;;;;;;;3.30;3.00;;;;;;;;;;5055487;28;20819;-75
2022/05/12 14:20:04;;;;;;;4.30;4.00;;;;;;;;;;5053454;28;20421;-76
2022/05/12 14:22:32;;;;;;;5.23;3.70;;;;;;;;;;5052044;28;20909;-74
2022/05/12 14:24:59;;;;;;;4.03;3.50;;;;;;;;;;5052762;28;20448;-75
2022/05/12 14:27:26;;;;;;;5.00;3.73;;;;;;;;;;5052344;28;20541;-75
2022/05/12 14:29:53;;;;;;;3.47;3.17;;;;;;;;;;5052369;28;20460;-76
2022/05/12 14:32:20;;;;;;;4.20;3.47;;;;;;;;;;5052510;28;20439;-76
2022/05/12 14:34:48;;;;;;;3.57;3.27;;;;;;;;;;5052475;28;20491;-75
2022/05/12 14:37:15;;;;;;;3.60;3.30;;;;;;;;;;5052694;28;20465;-75
2022/05/12 14:39:43;;;;;;;4.50;3.43;;;;;;;;;;5052311;28;20646;-74
2022/05/12 14:42:10;;;;;;;7.50;3.70;;;;;;;;;;5052172;28;20992;-75
2022/05/12 14:44:37;;;;;;;4.10;3.87;;;;;;;;;;5051739;28;20449;-74
2022/05/12 14:47:06;;;;;;;4.43;3.30;;;;;;;;;;5051939;28;20473;-76
2022/05/12 14:49:35;;;;;;;5.27;4.10;;;;;;;;;;5052206;28;20523;-77
2022/05/12 14:52:02;;;;;;;4.13;3.70;;;;;;;;;;5052264;28;20438;-75
2022/05/12 14:54:30;;;;;;;3.53;3.20;;;;;;;;;;5051901;28;20471;-77
2022/05/12 14:56:58;;;;;;;4.50;4.20;;;;;;;;;;5051794;28;20458;-76
2022/05/12 14:59:25;;;;;;;6.43;3.70;;;;;;;;;;5052099;28;20457;-76
2022/05/12 15:01:53;;;;;;;3.80;3.60;;;;;;;;;;5052589;28;20477;-76
2022/05/12 15:04:21;;;;;;;5.87;4.07;;;;;;;;;;5052886;28;20441;-75
2022/05/12 15:06:50;;;;;;;4.20;3.80;;;;;;;;;;5052705;28;20446;-75
2022/05/12 15:09:17;;;;;;;7.03;3.70;;;;;;;;;;5052335;28;20449;-75
2022/05/12 15:11:44;;;;;;;4.70;4.30;;;;;;;;;;5052315;28;20437;-75
2022/05/12 15:14:13;;;;;;;4.13;3.73;;;;;;;;;;5051194;28;20516;-76
2022/05/12 15:16:40;;;;;;;4.00;3.73;;;;;;;;;;5051404;28;20940;-75
2022/05/12 15:19:07;;;;;;;4.60;3.80;;;;;;;;;;5051556;28;20506;-76
2022/05/12 15:21:34;;;;;;;3.97;3.67;;;;;;;;;;5050950;28;20995;-76
2022/05/12 15:24:02;;;;;;;5.00;3.70;;;;;;;;;;5050518;28;21000;-75
2022/05/12 15:26:31;;;;;;;5.13;3.73;;;;;;;;;;5050952;28;20621;-75
2022/05/12 15:28:58;;;;;;;4.00;3.70;;;;;;;;;;5050801;28;20445;-74
2022/05/12 15:31:27;;;;;;;5.73;4.73;;;;;;;;;;5051142;28;20438;-74
2022/05/12 15:33:57;;;;;;;5.13;3.70;;;;;;;;;;5050598;28;20449;-75
2022/05/12 15:36:25;;;;;;;5.40;4.10;;;;;;;;;;5050980;28;20540;-75